sensor_id;sensor_type;location;lat;lon;timestamp;P1;durP1;ratioP1;P2;durP2;ratioP2
15506;SDS011;7855;52.210;5.982;2022-08-07T00:02:58;7;;;1;;
15506;SDS011;7855;52.210;5.982;2022-08-07T00:03:38;10;;;2;;
15506;SDS011;7855;52.210;5.982;2022-08-07T00:05:53;4;;;1;;
15506;SDS011;7855;52.210;5.982;2022-08-07T00:08:07;5;;;1;;
15506;SDS011;7855;52.210;5.982;2022-08-07T00:10:22;4;;;1;;
15506;SDS011;7855;52.210;5.982;2022-08-07T00:12:36;6;;;2;;
15506;SDS011;7855;52.210;5.982;2022-08-07T00:14:50;5;;;1;;
15506;SDS011;7855;52.210;5.982;2022-08-07T00:17:05;5;;;1;;
15506;SDS011;7855;52.210;5.982;2022-08-07T00:19:19;7;;;2;;
15506;SDS011;7855;52.210;5.982;2022-08-07T00:21:34;5;;;1;;
15506;SDS011;7855;52.210;5.982;2022-08-07T00:23:48;11;;;2;;
15506;SDS011;7855;52.210;5.982;2022-08-07T00:26:04;9;;;1;;
15506;SDS011;7855;52.210;5.982;2022-08-07T00:28:17;4;;;1;;
15506;SDS011;7855;52.210;5.982;2022-08-07T00:30:32;7;;;2;;
15506;SDS011;7855;52.210;5.982;2022-08-07T00:32:46;6;;;2;;
15506;SDS011;7855;52.210;5.982;2022-08-07T00:35:01;5;;;1;;
15506;SDS011;7855;52.210;5.982;2022-08-07T00:37:15;8;;;2;;
15506;SDS011;7855;52.210;5.982;2022-08-07T00:39:29;7;;;2;;
15506;SDS011;7855;52.210;5.982;2022-08-07T00:41:47;6;;;2;;
15506;SDS011;7855;52.210;5.982;2022-08-07T00:43:58;6;;;2;;
15506;SDS011;7855;52.210;5.982;2022-08-07T00:46:13;7;;;2;;
15506;SDS011;7855;52.210;5.982;2022-08-07T00:48:27;5;;;1;;
15506;SDS011;7855;52.210;5.982;2022-08-07T00:50:41;5;;;1;;
15506;SDS011;7855;52.210;5.982;2022-08-07T00:52:56;5;;;2;;
15506;SDS011;7855;52.210;5.982;2022-08-07T00:55:11;6;;;1;;
15506;SDS011;7855;52.210;5.982;2022-08-07T00:57:25;6;;;2;;
15506;SDS011;7855;52.210;5.982;2022-08-07T00:59:39;7;;;1;;
15506;SDS011;7855;52.210;5.982;2022-08-07T01:01:54;6;;;1;;
15506;SDS011;7855;52.210;5.982;2022-08-07T01:04:09;5;;;2;;
15506;SDS011;7855;52.210;5.982;2022-08-07T01:08:39;6;;;2;;
15506;SDS011;7855;52.210;5.982;2022-08-07T01:10:52;6;;;2;;
15506;SDS011;7855;52.210;5.982;2022-08-07T01:13:07;5;;;2;;
15506;SDS011;7855;52.210;5.982;2022-08-07T01:15:21;7;;;2;;
15506;SDS011;7855;52.210;5.982;2022-08-07T01:17:35;6;;;1;;
15506;SDS011;7855;52.210;5.982;2022-08-07T01:19:50;6;;;2;;
15506;SDS011;7855;52.210;5.982;2022-08-07T01:22:04;7;;;3;;
15506;SDS011;7855;52.210;5.982;2022-08-07T01:24:18;8;;;2;;
15506;SDS011;7855;52.210;5.982;2022-08-07T01:26:33;9;;;2;;
15506;SDS011;7855;52.210;5.982;2022-08-07T01:28:48;7;;;2;;
15506;SDS011;7855;52.210;5.982;2022-08-07T01:31:02;6;;;2;;
15506;SDS011;7855;52.210;5.982;2022-08-07T01:33:16;6;;;2;;
15506;SDS011;7855;52.210;5.982;2022-08-07T01:35:31;7;;;2;;
15506;SDS011;7855;52.210;5.982;2022-08-07T01:37:46;8;;;2;;
15506;SDS011;7855;52.210;5.982;2022-08-07T01:40:00;9;;;3;;
15506;SDS011;7855;52.210;5.982;2022-08-07T01:42:14;8;;;2;;
15506;SDS011;7855;52.210;5.982;2022-08-07T01:44:28;9;;;2;;
15506;SDS011;7855;52.210;5.982;2022-08-07T01:46:42;7;;;2;;
15506;SDS011;7855;52.210;5.982;2022-08-07T01:48:56;7;;;2;;
15506;SDS011;7855;52.210;5.982;2022-08-07T01:51:12;7;;;2;;
15506;SDS011;7855;52.210;5.982;2022-08-07T01:53:26;6;;;2;;
15506;SDS011;7855;52.210;5.982;2022-08-07T01:55:41;14;;;3;;
15506;SDS011;7855;52.210;5.982;2022-08-07T01:57:54;10;;;3;;
15506;SDS011;7855;52.210;5.982;2022-08-07T02:00:10;9;;;2;;
15506;SDS011;7855;52.210;5.982;2022-08-07T02:02:25;10;;;3;;
15506;SDS011;7855;52.210;5.982;2022-08-07T02:04:39;6;;;3;;
15506;SDS011;7855;52.210;5.982;2022-08-07T02:06:52;7;;;2;;
15506;SDS011;7855;52.210;5.982;2022-08-07T02:09:08;7;;;3;;
15506;SDS011;7855;52.210;5.982;2022-08-07T02:11:21;9;;;3;;
15506;SDS011;7855;52.210;5.982;2022-08-07T02:13:36;7;;;2;;
15506;SDS011;7855;52.210;5.982;2022-08-07T02:15:50;9;;;3;;
15506;SDS011;7855;52.210;5.982;2022-08-07T02:18:04;11;;;3;;
15506;SDS011;7855;52.210;5.982;2022-08-07T02:20:19;8;;;3;;
15506;SDS011;7855;52.210;5.982;2022-08-07T02:22:33;8;;;3;;
15506;SDS011;7855;52.210;5.982;2022-08-07T02:24:48;8;;;2;;
15506;SDS011;7855;52.210;5.982;2022-08-07T02:27:02;7;;;3;;
15506;SDS011;7855;52.210;5.982;2022-08-07T02:29:17;8;;;3;;
15506;SDS011;7855;52.210;5.982;2022-08-07T02:31:31;7;;;3;;
15506;SDS011;7855;52.210;5.982;2022-08-07T02:33:45;9;;;3;;
15506;SDS011;7855;52.210;5.982;2022-08-07T02:36:00;8;;;3;;
15506;SDS011;7855;52.210;5.982;2022-08-07T02:38:14;8;;;2;;
15506;SDS011;7855;52.210;5.982;2022-08-07T02:40:29;8;;;3;;
15506;SDS011;7855;52.210;5.982;2022-08-07T02:42:43;25;;;16;;
15506;SDS011;7855;52.210;5.982;2022-08-07T02:44:58;18;;;10;;
15506;SDS011;7855;52.210;5.982;2022-08-07T02:47:12;8;;;3;;
15506;SDS011;7855;52.210;5.982;2022-08-07T02:49:27;11;;;3;;
15506;SDS011;7855;52.210;5.982;2022-08-07T02:51:41;9;;;3;;
15506;SDS011;7855;52.210;5.982;2022-08-07T02:53:55;8;;;3;;
15506;SDS011;7855;52.210;5.982;2022-08-07T02:56:10;8;;;3;;
15506;SDS011;7855;52.210;5.982;2022-08-07T02:58:24;9;;;3;;
15506;SDS011;7855;52.210;5.982;2022-08-07T03:00:39;9;;;4;;
15506;SDS011;7855;52.210;5.982;2022-08-07T03:02:53;9;;;4;;
15506;SDS011;7855;52.210;5.982;2022-08-07T03:05:08;7;;;3;;
15506;SDS011;7855;52.210;5.982;2022-08-07T03:07:22;11;;;4;;
15506;SDS011;7855;52.210;5.982;2022-08-07T03:09:36;10;;;3;;
15506;SDS011;7855;52.210;5.982;2022-08-07T03:11:51;12;;;4;;
15506;SDS011;7855;52.210;5.982;2022-08-07T03:14:05;8;;;3;;
15506;SDS011;7855;52.210;5.982;2022-08-07T03:16:20;8;;;3;;
15506;SDS011;7855;52.210;5.982;2022-08-07T03:18:34;14;;;3;;
15506;SDS011;7855;52.210;5.982;2022-08-07T03:20:48;8;;;3;;
15506;SDS011;7855;52.210;5.982;2022-08-07T03:23:03;9;;;3;;
15506;SDS011;7855;52.210;5.982;2022-08-07T03:25:18;10;;;3;;
15506;SDS011;7855;52.210;5.982;2022-08-07T03:27:32;14;;;4;;
15506;SDS011;7855;52.210;5.982;2022-08-07T03:29:47;8;;;3;;
15506;SDS011;7855;52.210;5.982;2022-08-07T03:32:02;8;;;3;;
15506;SDS011;7855;52.210;5.982;2022-08-07T03:34:16;8;;;4;;
15506;SDS011;7855;52.210;5.982;2022-08-07T03:36:30;13;;;4;;
15506;SDS011;7855;52.210;5.982;2022-08-07T03:38:45;8;;;4;;
15506;SDS011;7855;52.210;5.982;2022-08-07T03:40:59;9;;;3;;
15506;SDS011;7855;52.210;5.982;2022-08-07T03:43:13;12;;;4;;
15506;SDS011;7855;52.210;5.982;2022-08-07T03:45:28;9;;;4;;
15506;SDS011;7855;52.210;5.982;2022-08-07T03:47:42;13;;;4;;
15506;SDS011;7855;52.210;5.982;2022-08-07T03:49:57;9;;;5;;
15506;SDS011;7855;52.210;5.982;2022-08-07T03:52:11;10;;;4;;
15506;SDS011;7855;52.210;5.982;2022-08-07T03:54:26;10;;;4;;
15506;SDS011;7855;52.210;5.982;2022-08-07T03:56:40;8;;;3;;
15506;SDS011;7855;52.210;5.982;2022-08-07T03:58:54;10;;;4;;
15506;SDS011;7855;52.210;5.982;2022-08-07T04:01:09;8;;;4;;
15506;SDS011;7855;52.210;5.982;2022-08-07T04:03:23;16;;;4;;
15506;SDS011;7855;52.210;5.982;2022-08-07T04:05:38;9;;;4;;
15506;SDS011;7855;52.210;5.982;2022-08-07T04:07:51;11;;;4;;
15506;SDS011;7855;52.210;5.982;2022-08-07T04:10:06;9;;;4;;
15506;SDS011;7855;52.210;5.982;2022-08-07T04:12:20;9;;;5;;
15506;SDS011;7855;52.210;5.982;2022-08-07T04:14:34;11;;;4;;
15506;SDS011;7855;52.210;5.982;2022-08-07T04:16:49;11;;;4;;
15506;SDS011;7855;52.210;5.982;2022-08-07T04:19:03;11;;;4;;
15506;SDS011;7855;52.210;5.982;2022-08-07T04:21:18;9;;;4;;
15506;SDS011;7855;52.210;5.982;2022-08-07T04:23:32;9;;;4;;
15506;SDS011;7855;52.210;5.982;2022-08-07T04:25:47;10;;;5;;
15506;SDS011;7855;52.210;5.982;2022-08-07T04:28:00;10;;;3;;
15506;SDS011;7855;52.210;5.982;2022-08-07T04:30:15;12;;;4;;
15506;SDS011;7855;52.210;5.982;2022-08-07T04:32:29;10;;;5;;
15506;SDS011;7855;52.210;5.982;2022-08-07T04:34:43;11;;;5;;
15506;SDS011;7855;52.210;5.982;2022-08-07T04:36:58;9;;;5;;
15506;SDS011;7855;52.210;5.982;2022-08-07T04:39:13;10;;;5;;
15506;SDS011;7855;52.210;5.982;2022-08-07T04:41:27;8;;;3;;
15506;SDS011;7855;52.210;5.982;2022-08-07T04:43:41;13;;;5;;
15506;SDS011;7855;52.210;5.982;2022-08-07T04:45:59;39;;;30;;
15506;SDS011;7855;52.210;5.982;2022-08-07T04:48:11;9;;;4;;
15506;SDS011;7855;52.210;5.982;2022-08-07T04:50:28;10;;;5;;
15506;SDS011;7855;52.210;5.982;2022-08-07T04:52:40;10;;;5;;
15506;SDS011;7855;52.210;5.982;2022-08-07T04:54:54;10;;;5;;
15506;SDS011;7855;52.210;5.982;2022-08-07T04:57:10;11;;;5;;
15506;SDS011;7855;52.210;5.982;2022-08-07T04:59:24;22;;;17;;
15506;SDS011;7855;52.210;5.982;2022-08-07T05:01:38;10;;;4;;
15506;SDS011;7855;52.210;5.982;2022-08-07T05:03:53;14;;;9;;
15506;SDS011;7855;52.210;5.982;2022-08-07T05:06:06;10;;;5;;
15506;SDS011;7855;52.210;5.982;2022-08-07T05:08:22;9;;;5;;
15506;SDS011;7855;52.210;5.982;2022-08-07T05:10:36;14;;;6;;
15506;SDS011;7855;52.210;5.982;2022-08-07T05:12:51;10;;;4;;
15506;SDS011;7855;52.210;5.982;2022-08-07T05:15:06;11;;;6;;
15506;SDS011;7855;52.210;5.982;2022-08-07T05:17:18;12;;;6;;
15506;SDS011;7855;52.210;5.982;2022-08-07T05:19:34;13;;;5;;
15506;SDS011;7855;52.210;5.982;2022-08-07T05:21:48;10;;;5;;
15506;SDS011;7855;52.210;5.982;2022-08-07T05:24:03;11;;;5;;
15506;SDS011;7855;52.210;5.982;2022-08-07T05:26:23;17;;;10;;
15506;SDS011;7855;52.210;5.982;2022-08-07T05:28:31;13;;;5;;
15506;SDS011;7855;52.210;5.982;2022-08-07T05:30:45;10;;;5;;
15506;SDS011;7855;52.210;5.982;2022-08-07T05:32:59;11;;;5;;
15506;SDS011;7855;52.210;5.982;2022-08-07T05:35:14;16;;;6;;
15506;SDS011;7855;52.210;5.982;2022-08-07T05:37:28;15;;;7;;
15506;SDS011;7855;52.210;5.982;2022-08-07T05:39:42;12;;;7;;
15506;SDS011;7855;52.210;5.982;2022-08-07T05:41:57;13;;;6;;
15506;SDS011;7855;52.210;5.982;2022-08-07T05:44:12;14;;;6;;
15506;SDS011;7855;52.210;5.982;2022-08-07T05:46:26;14;;;6;;
15506;SDS011;7855;52.210;5.982;2022-08-07T05:48:40;13;;;7;;
15506;SDS011;7855;52.210;5.982;2022-08-07T05:50:55;26;;;18;;
15506;SDS011;7855;52.210;5.982;2022-08-07T05:53:09;14;;;9;;
15506;SDS011;7855;52.210;5.982;2022-08-07T05:55:24;16;;;8;;
15506;SDS011;7855;52.210;5.982;2022-08-07T05:57:38;16;;;8;;
15506;SDS011;7855;52.210;5.982;2022-08-07T05:59:53;17;;;8;;
15506;SDS011;7855;52.210;5.982;2022-08-07T06:02:07;18;;;9;;
15506;SDS011;7855;52.210;5.982;2022-08-07T06:04:22;13;;;7;;
15506;SDS011;7855;52.210;5.982;2022-08-07T06:06:36;23;;;11;;
15506;SDS011;7855;52.210;5.982;2022-08-07T06:08:51;16;;;8;;
15506;SDS011;7855;52.210;5.982;2022-08-07T06:11:05;15;;;8;;
15506;SDS011;7855;52.210;5.982;2022-08-07T06:13:19;15;;;7;;
15506;SDS011;7855;52.210;5.982;2022-08-07T06:15:34;16;;;8;;
15506;SDS011;7855;52.210;5.982;2022-08-07T06:17:48;17;;;8;;
15506;SDS011;7855;52.210;5.982;2022-08-07T06:20:03;15;;;8;;
15506;SDS011;7855;52.210;5.982;2022-08-07T06:22:17;18;;;9;;
15506;SDS011;7855;52.210;5.982;2022-08-07T06:24:32;13;;;7;;
15506;SDS011;7855;52.210;5.982;2022-08-07T06:26:46;16;;;9;;
15506;SDS011;7855;52.210;5.982;2022-08-07T06:29:00;16;;;8;;
15506;SDS011;7855;52.210;5.982;2022-08-07T06:31:15;16;;;9;;
15506;SDS011;7855;52.210;5.982;2022-08-07T06:33:29;20;;;8;;
15506;SDS011;7855;52.210;5.982;2022-08-07T06:35:44;14;;;8;;
15506;SDS011;7855;52.210;5.982;2022-08-07T06:37:58;16;;;9;;
15506;SDS011;7855;52.210;5.982;2022-08-07T06:40:12;15;;;8;;
15506;SDS011;7855;52.210;5.982;2022-08-07T06:42:27;14;;;8;;
15506;SDS011;7855;52.210;5.982;2022-08-07T06:44:42;17;;;7;;
15506;SDS011;7855;52.210;5.982;2022-08-07T06:46:56;17;;;9;;
15506;SDS011;7855;52.210;5.982;2022-08-07T06:49:10;17;;;9;;
15506;SDS011;7855;52.210;5.982;2022-08-07T06:51:26;14;;;9;;
15506;SDS011;7855;52.210;5.982;2022-08-07T06:53:39;15;;;8;;
15506;SDS011;7855;52.210;5.982;2022-08-07T06:55:53;16;;;8;;
15506;SDS011;7855;52.210;5.982;2022-08-07T06:58:08;17;;;8;;
15506;SDS011;7855;52.210;5.982;2022-08-07T07:00:23;18;;;8;;
15506;SDS011;7855;52.210;5.982;2022-08-07T07:02:36;14;;;8;;
15506;SDS011;7855;52.210;5.982;2022-08-07T07:04:51;14;;;8;;
15506;SDS011;7855;52.210;5.982;2022-08-07T07:07:05;15;;;7;;
15506;SDS011;7855;52.210;5.982;2022-08-07T07:09:21;14;;;8;;
15506;SDS011;7855;52.210;5.982;2022-08-07T07:11:34;14;;;7;;
15506;SDS011;7855;52.210;5.982;2022-08-07T07:13:48;16;;;7;;
15506;SDS011;7855;52.210;5.982;2022-08-07T07:16:07;13;;;8;;
15506;SDS011;7855;52.210;5.982;2022-08-07T07:18:18;12;;;6;;
15506;SDS011;7855;52.210;5.982;2022-08-07T07:20:32;14;;;7;;
15506;SDS011;7855;52.210;5.982;2022-08-07T07:22:46;11;;;6;;
15506;SDS011;7855;52.210;5.982;2022-08-07T07:25:02;11;;;6;;
15506;SDS011;7855;52.210;5.982;2022-08-07T07:27:16;13;;;8;;
15506;SDS011;7855;52.210;5.982;2022-08-07T07:29:32;13;;;6;;
15506;SDS011;7855;52.210;5.982;2022-08-07T07:31:46;11;;;6;;
15506;SDS011;7855;52.210;5.982;2022-08-07T07:34:01;12;;;5;;
15506;SDS011;7855;52.210;5.982;2022-08-07T07:36:13;15;;;6;;
15506;SDS011;7855;52.210;5.982;2022-08-07T07:38:27;11;;;6;;
15506;SDS011;7855;52.210;5.982;2022-08-07T07:40:42;9;;;5;;
15506;SDS011;7855;52.210;5.982;2022-08-07T07:42:56;11;;;6;;
15506;SDS011;7855;52.210;5.982;2022-08-07T07:45:11;11;;;6;;
15506;SDS011;7855;52.210;5.982;2022-08-07T07:47:25;10;;;6;;
15506;SDS011;7855;52.210;5.982;2022-08-07T07:49:40;12;;;5;;
15506;SDS011;7855;52.210;5.982;2022-08-07T07:51:54;10;;;5;;
15506;SDS011;7855;52.210;5.982;2022-08-07T07:54:09;10;;;6;;
15506;SDS011;7855;52.210;5.982;2022-08-07T07:56:24;14;;;5;;
15506;SDS011;7855;52.210;5.982;2022-08-07T07:58:38;7;;;4;;
15506;SDS011;7855;52.210;5.982;2022-08-07T08:00:52;9;;;5;;
15506;SDS011;7855;52.210;5.982;2022-08-07T08:03:07;12;;;5;;
15506;SDS011;7855;52.210;5.982;2022-08-07T08:05:21;11;;;4;;
15506;SDS011;7855;52.210;5.982;2022-08-07T08:07:35;20;;;5;;
15506;SDS011;7855;52.210;5.982;2022-08-07T08:09:50;8;;;3;;
15506;SDS011;7855;52.210;5.982;2022-08-07T08:12:04;9;;;4;;
15506;SDS011;7855;52.210;5.982;2022-08-07T08:14:19;8;;;5;;
15506;SDS011;7855;52.210;5.982;2022-08-07T08:16:34;8;;;3;;
15506;SDS011;7855;52.210;5.982;2022-08-07T08:18:47;7;;;3;;
15506;SDS011;7855;52.210;5.982;2022-08-07T08:21:02;13;;;5;;
15506;SDS011;7855;52.210;5.982;2022-08-07T08:23:16;8;;;4;;
15506;SDS011;7855;52.210;5.982;2022-08-07T08:25:32;13;;;9;;
15506;SDS011;7855;52.210;5.982;2022-08-07T08:27:47;10;;;3;;
15506;SDS011;7855;52.210;5.982;2022-08-07T08:30:01;8;;;4;;
15506;SDS011;7855;52.210;5.982;2022-08-07T08:32:16;20;;;11;;
15506;SDS011;7855;52.210;5.982;2022-08-07T08:34:28;19;;;10;;
15506;SDS011;7855;52.210;5.982;2022-08-07T08:36:43;8;;;4;;
15506;SDS011;7855;52.210;5.982;2022-08-07T08:38:58;9;;;4;;
15506;SDS011;7855;52.210;5.982;2022-08-07T08:41:16;12;;;6;;
15506;SDS011;7855;52.210;5.982;2022-08-07T08:43:30;8;;;3;;
15506;SDS011;7855;52.210;5.982;2022-08-07T08:45:42;6;;;3;;
15506;SDS011;7855;52.210;5.982;2022-08-07T08:47:59;31;;;27;;
15506;SDS011;7855;52.210;5.982;2022-08-07T08:50:11;7;;;2;;
15506;SDS011;7855;52.210;5.982;2022-08-07T08:52:25;7;;;3;;
15506;SDS011;7855;52.210;5.982;2022-08-07T08:54:40;9;;;2;;
15506;SDS011;7855;52.210;5.982;2022-08-07T08:56:53;7;;;3;;
15506;SDS011;7855;52.210;5.982;2022-08-07T08:59:08;5;;;2;;
15506;SDS011;7855;52.210;5.982;2022-08-07T09:01:23;6;;;3;;
15506;SDS011;7855;52.210;5.982;2022-08-07T09:03:39;14;;;2;;
15506;SDS011;7855;52.210;5.982;2022-08-07T09:05:52;7;;;3;;
15506;SDS011;7855;52.210;5.982;2022-08-07T09:08:10;4;;;2;;
15506;SDS011;7855;52.210;5.982;2022-08-07T09:10:21;6;;;2;;
15506;SDS011;7855;52.210;5.982;2022-08-07T09:12:41;6;;;2;;
15506;SDS011;7855;52.210;5.982;2022-08-07T09:14:51;5;;;2;;
15506;SDS011;7855;52.210;5.982;2022-08-07T09:17:05;4;;;2;;
15506;SDS011;7855;52.210;5.982;2022-08-07T09:19:21;4;;;2;;
15506;SDS011;7855;52.210;5.982;2022-08-07T09:21:32;4;;;2;;
15506;SDS011;7855;52.210;5.982;2022-08-07T09:23:49;8;;;2;;
15506;SDS011;7855;52.210;5.982;2022-08-07T09:26:04;4;;;2;;
15506;SDS011;7855;52.210;5.982;2022-08-07T09:28:16;3;;;1;;
15506;SDS011;7855;52.210;5.982;2022-08-07T09:30:32;4;;;1;;
15506;SDS011;7855;52.210;5.982;2022-08-07T09:32:47;5;;;3;;
15506;SDS011;7855;52.210;5.982;2022-08-07T09:35:02;4;;;2;;
15506;SDS011;7855;52.210;5.982;2022-08-07T09:37:13;4;;;2;;
15506;SDS011;7855;52.210;5.982;2022-08-07T09:39:30;5;;;2;;
15506;SDS011;7855;52.210;5.982;2022-08-07T09:41:43;5;;;2;;
15506;SDS011;7855;52.210;5.982;2022-08-07T09:44:02;4;;;2;;
15506;SDS011;7855;52.210;5.982;2022-08-07T09:46:12;5;;;3;;
15506;SDS011;7855;52.210;5.982;2022-08-07T09:48:26;5;;;2;;
15506;SDS011;7855;52.210;5.982;2022-08-07T09:50:45;4;;;2;;
15506;SDS011;7855;52.210;5.982;2022-08-07T09:52:55;4;;;3;;
15506;SDS011;7855;52.210;5.982;2022-08-07T09:55:09;5;;;2;;
15506;SDS011;7855;52.210;5.982;2022-08-07T09:57:36;6;;;2;;
15506;SDS011;7855;52.210;5.982;2022-08-07T09:59:47;9;;;2;;
15506;SDS011;7855;52.210;5.982;2022-08-07T10:01:57;10;;;2;;
15506;SDS011;7855;52.210;5.982;2022-08-07T10:04:11;4;;;2;;
15506;SDS011;7855;52.210;5.982;2022-08-07T10:06:30;5;;;2;;
15506;SDS011;7855;52.210;5.982;2022-08-07T10:08:38;5;;;2;;
15506;SDS011;7855;52.210;5.982;2022-08-07T10:10:51;4;;;2;;
15506;SDS011;7855;52.210;5.982;2022-08-07T10:13:10;4;;;2;;
15506;SDS011;7855;52.210;5.982;2022-08-07T10:15:24;4;;;1;;
15506;SDS011;7855;52.210;5.982;2022-08-07T10:17:41;10;;;2;;
15506;SDS011;7855;52.210;5.982;2022-08-07T10:19:53;5;;;1;;
15506;SDS011;7855;52.210;5.982;2022-08-07T10:22:07;4;;;2;;
15506;SDS011;7855;52.210;5.982;2022-08-07T10:24:21;5;;;2;;
15506;SDS011;7855;52.210;5.982;2022-08-07T10:26:34;9;;;2;;
15506;SDS011;7855;52.210;5.982;2022-08-07T10:28:55;4;;;2;;
15506;SDS011;7855;52.210;5.982;2022-08-07T10:31:02;4;;;2;;
15506;SDS011;7855;52.210;5.982;2022-08-07T10:33:18;5;;;2;;
15506;SDS011;7855;52.210;5.982;2022-08-07T10:35:29;5;;;2;;
15506;SDS011;7855;52.210;5.982;2022-08-07T10:37:44;9;;;2;;
15506;SDS011;7855;52.210;5.982;2022-08-07T10:40:00;6;;;2;;
15506;SDS011;7855;52.210;5.982;2022-08-07T10:42:17;6;;;2;;
15506;SDS011;7855;52.210;5.982;2022-08-07T10:44:26;5;;;2;;
15506;SDS011;7855;52.210;5.982;2022-08-07T10:46:42;5;;;2;;
15506;SDS011;7855;52.210;5.982;2022-08-07T10:48:56;10;;;2;;
15506;SDS011;7855;52.210;5.982;2022-08-07T10:51:09;7;;;2;;
15506;SDS011;7855;52.210;5.982;2022-08-07T10:53:25;4;;;1;;
15506;SDS011;7855;52.210;5.982;2022-08-07T10:55:41;7;;;2;;
15506;SDS011;7855;52.210;5.982;2022-08-07T10:57:55;6;;;2;;
15506;SDS011;7855;52.210;5.982;2022-08-07T11:00:10;4;;;1;;
15506;SDS011;7855;52.210;5.982;2022-08-07T11:02:21;5;;;2;;
15506;SDS011;7855;52.210;5.982;2022-08-07T11:04:39;4;;;2;;
15506;SDS011;7855;52.210;5.982;2022-08-07T11:06:53;5;;;2;;
15506;SDS011;7855;52.210;5.982;2022-08-07T11:09:06;6;;;2;;
15506;SDS011;7855;52.210;5.982;2022-08-07T11:11:20;4;;;2;;
15506;SDS011;7855;52.210;5.982;2022-08-07T11:13:35;4;;;2;;
15506;SDS011;7855;52.210;5.982;2022-08-07T11:15:49;7;;;3;;
15506;SDS011;7855;52.210;5.982;2022-08-07T11:18:03;5;;;2;;
15506;SDS011;7855;52.210;5.982;2022-08-07T11:20:18;6;;;2;;
15506;SDS011;7855;52.210;5.982;2022-08-07T11:22:32;4;;;2;;
15506;SDS011;7855;52.210;5.982;2022-08-07T11:24:47;6;;;2;;
15506;SDS011;7855;52.210;5.982;2022-08-07T11:27:01;9;;;2;;
15506;SDS011;7855;52.210;5.982;2022-08-07T11:29:16;5;;;2;;
15506;SDS011;7855;52.210;5.982;2022-08-07T11:31:30;5;;;1;;
15506;SDS011;7855;52.210;5.982;2022-08-07T11:33:45;5;;;2;;
15506;SDS011;7855;52.210;5.982;2022-08-07T11:36:02;4;;;1;;
15506;SDS011;7855;52.210;5.982;2022-08-07T11:38:13;4;;;2;;
15506;SDS011;7855;52.210;5.982;2022-08-07T11:40:29;6;;;1;;
15506;SDS011;7855;52.210;5.982;2022-08-07T11:42:45;5;;;2;;
15506;SDS011;7855;52.210;5.982;2022-08-07T11:44:57;4;;;1;;
15506;SDS011;7855;52.210;5.982;2022-08-07T11:47:11;4;;;2;;
15506;SDS011;7855;52.210;5.982;2022-08-07T11:49:28;8;;;2;;
15506;SDS011;7855;52.210;5.982;2022-08-07T11:51:41;8;;;1;;
15506;SDS011;7855;52.210;5.982;2022-08-07T11:53:55;3;;;1;;
15506;SDS011;7855;52.210;5.982;2022-08-07T11:56:10;3;;;1;;
15506;SDS011;7855;52.210;5.982;2022-08-07T11:58:25;7;;;2;;
15506;SDS011;7855;52.210;5.982;2022-08-07T12:00:37;9;;;2;;
15506;SDS011;7855;52.210;5.982;2022-08-07T12:02:54;3;;;1;;
15506;SDS011;7855;52.210;5.982;2022-08-07T12:05:06;4;;;2;;
15506;SDS011;7855;52.210;5.982;2022-08-07T12:07:20;5;;;1;;
15506;SDS011;7855;52.210;5.982;2022-08-07T12:09:34;3;;;1;;
15506;SDS011;7855;52.210;5.982;2022-08-07T12:11:51;4;;;1;;
15506;SDS011;7855;52.210;5.982;2022-08-07T12:14:05;6;;;1;;
15506;SDS011;7855;52.210;5.982;2022-08-07T12:16:19;7;;;1;;
15506;SDS011;7855;52.210;5.982;2022-08-07T12:18:32;5;;;1;;
15506;SDS011;7855;52.210;5.982;2022-08-07T12:20:46;4;;;1;;
15506;SDS011;7855;52.210;5.982;2022-08-07T12:23:18;4;;;1;;
15506;SDS011;7855;52.210;5.982;2022-08-07T12:25:16;4;;;1;;
15506;SDS011;7855;52.210;5.982;2022-08-07T12:27:28;5;;;1;;
15506;SDS011;7855;52.210;5.982;2022-08-07T12:29:45;4;;;1;;
15506;SDS011;7855;52.210;5.982;2022-08-07T12:31:58;4;;;1;;
15506;SDS011;7855;52.210;5.982;2022-08-07T12:34:11;8;;;1;;
15506;SDS011;7855;52.210;5.982;2022-08-07T12:36:26;3;;;1;;
15506;SDS011;7855;52.210;5.982;2022-08-07T12:38:40;3;;;1;;
15506;SDS011;7855;52.210;5.982;2022-08-07T12:40:55;4;;;1;;
15506;SDS011;7855;52.210;5.982;2022-08-07T12:43:10;3;;;1;;
15506;SDS011;7855;52.210;5.982;2022-08-07T12:45:25;6;;;1;;
15506;SDS011;7855;52.210;5.982;2022-08-07T12:47:41;3;;;1;;
15506;SDS011;7855;52.210;5.982;2022-08-07T12:49:56;4;;;1;;
15506;SDS011;7855;52.210;5.982;2022-08-07T12:52:10;6;;;2;;
15506;SDS011;7855;52.210;5.982;2022-08-07T12:54:24;3;;;1;;
15506;SDS011;7855;52.210;5.982;2022-08-07T12:56:38;4;;;2;;
15506;SDS011;7855;52.210;5.982;2022-08-07T12:58:50;5;;;2;;
15506;SDS011;7855;52.210;5.982;2022-08-07T13:01:07;7;;;1;;
15506;SDS011;7855;52.210;5.982;2022-08-07T13:03:27;3;;;1;;
15506;SDS011;7855;52.210;5.982;2022-08-07T13:05:37;4;;;1;;
15506;SDS011;7855;52.210;5.982;2022-08-07T13:07:53;9;;;1;;
15506;SDS011;7855;52.210;5.982;2022-08-07T13:10:09;5;;;1;;
15506;SDS011;7855;52.210;5.982;2022-08-07T13:12:19;3;;;1;;
15506;SDS011;7855;52.210;5.982;2022-08-07T13:14:35;5;;;1;;
15506;SDS011;7855;52.210;5.982;2022-08-07T13:16:47;3;;;1;;
15506;SDS011;7855;52.210;5.982;2022-08-07T13:19:07;3;;;1;;
15506;SDS011;7855;52.210;5.982;2022-08-07T13:21:16;3;;;1;;
15506;SDS011;7855;52.210;5.982;2022-08-07T13:23:33;4;;;1;;
15506;SDS011;7855;52.210;5.982;2022-08-07T13:25:44;4;;;1;;
15506;SDS011;7855;52.210;5.982;2022-08-07T13:28:00;6;;;1;;
15506;SDS011;7855;52.210;5.982;2022-08-07T13:30:13;3;;;1;;
15506;SDS011;7855;52.210;5.982;2022-08-07T13:32:29;3;;;1;;
15506;SDS011;7855;52.210;5.982;2022-08-07T13:34:42;3;;;1;;
15506;SDS011;7855;52.210;5.982;2022-08-07T13:36:58;7;;;1;;
15506;SDS011;7855;52.210;5.982;2022-08-07T13:39:14;3;;;1;;
15506;SDS011;7855;52.210;5.982;2022-08-07T13:41:28;3;;;1;;
15506;SDS011;7855;52.210;5.982;2022-08-07T13:43:40;6;;;1;;
15506;SDS011;7855;52.210;5.982;2022-08-07T13:45:55;3;;;1;;
15506;SDS011;7855;52.210;5.982;2022-08-07T13:48:09;3;;;1;;
15506;SDS011;7855;52.210;5.982;2022-08-07T13:50:24;3;;;1;;
15506;SDS011;7855;52.210;5.982;2022-08-07T13:52:38;8;;;1;;
15506;SDS011;7855;52.210;5.982;2022-08-07T13:54:53;3;;;1;;
15506;SDS011;7855;52.210;5.982;2022-08-07T13:57:08;3;;;1;;
15506;SDS011;7855;52.210;5.982;2022-08-07T13:59:23;3;;;1;;
15506;SDS011;7855;52.210;5.982;2022-08-07T14:01:36;3;;;1;;
15506;SDS011;7855;52.210;5.982;2022-08-07T14:03:50;3;;;1;;
15506;SDS011;7855;52.210;5.982;2022-08-07T14:06:04;4;;;1;;
15506;SDS011;7855;52.210;5.982;2022-08-07T14:08:18;4;;;1;;
15506;SDS011;7855;52.210;5.982;2022-08-07T14:10:33;3;;;1;;
15506;SDS011;7855;52.210;5.982;2022-08-07T14:12:48;5;;;1;;
15506;SDS011;7855;52.210;5.982;2022-08-07T14:15:03;4;;;1;;
15506;SDS011;7855;52.210;5.982;2022-08-07T14:17:16;3;;;1;;
15506;SDS011;7855;52.210;5.982;2022-08-07T14:19:33;4;;;1;;
15506;SDS011;7855;52.210;5.982;2022-08-07T14:21:45;5;;;1;;
15506;SDS011;7855;52.210;5.982;2022-08-07T14:24:00;3;;;1;;
15506;SDS011;7855;52.210;5.982;2022-08-07T14:26:16;6;;;1;;
15506;SDS011;7855;52.210;5.982;2022-08-07T14:28:28;4;;;1;;
15506;SDS011;7855;52.210;5.982;2022-08-07T14:30:44;3;;;1;;
15506;SDS011;7855;52.210;5.982;2022-08-07T14:32:57;3;;;1;;
15506;SDS011;7855;52.210;5.982;2022-08-07T14:35:15;5;;;1;;
15506;SDS011;7855;52.210;5.982;2022-08-07T14:37:26;4;;;1;;
15506;SDS011;7855;52.210;5.982;2022-08-07T14:39:40;7;;;2;;
15506;SDS011;7855;52.210;5.982;2022-08-07T14:41:55;3;;;1;;
15506;SDS011;7855;52.210;5.982;2022-08-07T14:44:09;4;;;1;;
15506;SDS011;7855;52.210;5.982;2022-08-07T14:46:23;4;;;1;;
15506;SDS011;7855;52.210;5.982;2022-08-07T14:48:38;3;;;1;;
15506;SDS011;7855;52.210;5.982;2022-08-07T14:50:53;3;;;1;;
15506;SDS011;7855;52.210;5.982;2022-08-07T14:53:07;8;;;1;;
15506;SDS011;7855;52.210;5.982;2022-08-07T14:55:25;3;;;1;;
15506;SDS011;7855;52.210;5.982;2022-08-07T14:57:36;4;;;1;;
15506;SDS011;7855;52.210;5.982;2022-08-07T14:59:50;3;;;1;;
15506;SDS011;7855;52.210;5.982;2022-08-07T15:02:09;3;;;1;;
15506;SDS011;7855;52.210;5.982;2022-08-07T15:04:19;8;;;1;;